Time;durP1;ratioP1;P1;durP2;ratioP2;P2;SDS_P1;SDS_P2;PMS_P1;PMS_P2;Temp;Humidity;BMP_temperature;BMP_pressure;BME280_temperature;BME280_humidity;BME280_pressure;Samples;Min_cycle;Max_cycle;Signal;HPM_P1;HPM_P2
2021/08/14 04:36:55;;;;;;;21.92;7.97;;;15.90;99.90;;;;;;5359492;23;20058;-85
2021/08/14 04:39:24;;;;;;;17.67;6.00;;;15.90;99.90;;;;;;4869349;29;20050;-85
2021/08/14 04:41:52;;;;;;;26.00;6.40;;;15.90;99.90;;;;;;4860472;29;20050;-85
2021/08/14 04:44:21;;;;;;;12.82;5.10;;;15.90;99.90;;;;;;4850097;29;20064;-84
2021/08/14 04:46:49;;;;;;;18.25;6.13;;;15.80;99.90;;;;;;4851149;29;20060;-85
2021/08/14 04:49:17;;;;;;;21.92;8.00;;;15.80;99.90;;;;;;4857234;29;20071;-85
2021/08/14 04:51:46;;;;;;;15.90;5.97;;;15.80;99.90;;;;;;4839538;29;20069;-86
2021/08/14 04:54:15;;;;;;;15.60;5.55;;;15.80;99.90;;;;;;4855352;29;20062;-85
2021/08/14 04:56:44;;;;;;;14.48;5.43;;;15.70;99.90;;;;;;4841217;29;20054;-86
2021/08/14 04:59:13;;;;;;;20.67;6.43;;;15.70;99.90;;;;;;4848557;29;20068;-86
2021/08/14 05:01:41;;;;;;;18.23;6.93;;;15.70;99.90;;;;;;4871226;29;20065;-85
2021/08/14 05:04:13;;;;;;;19.50;6.20;;;15.70;99.90;;;;;;4862460;29;20063;-85
2021/08/14 05:06:42;;;;;;;13.50;5.22;;;15.60;99.90;;;;;;4841719;29;20068;-85
2021/08/14 05:09:11;;;;;;;17.83;5.78;;;15.60;99.90;;;;;;4854268;29;20486;-86
2021/08/14 05:11:40;;;;;;;13.48;6.07;;;15.60;99.90;;;;;;4855420;29;20085;-85
2021/08/14 05:14:08;;;;;;;17.10;5.72;;;15.60;99.90;;;;;;4865428;29;20054;-85
2021/08/14 05:16:37;;;;;;;24.05;5.85;;;15.60;99.90;;;;;;4838134;29;20054;-85
2021/08/14 05:19:09;;;;;;;21.77;6.15;;;15.60;99.90;;;;;;4837685;29;20090;-86
2021/08/14 05:21:37;;;;;;;26.55;7.28;;;15.60;99.90;;;;;;4851569;29;20058;-85
2021/08/14 05:24:13;;;;;;;18.67;5.55;;;15.60;99.90;;;;;;4848979;29;20066;-86
2021/08/14 05:26:42;;;;;;;14.32;5.30;;;15.70;99.90;;;;;;4857265;29;20074;-86
2021/08/14 05:29:10;;;;;;;15.80;6.57;;;15.60;99.90;;;;;;4846730;29;20076;-85
2021/08/14 05:31:39;;;;;;;14.38;6.45;;;15.60;99.90;;;;;;4858591;29;20058;-86
2021/08/14 05:34:08;;;;;;;14.20;5.93;;;15.70;99.90;;;;;;4848708;29;20063;-86
2021/08/14 05:36:36;;;;;;;15.68;6.22;;;15.70;99.90;;;;;;4841678;29;20057;-86
2021/08/14 05:39:04;;;;;;;19.52;6.80;;;15.40;99.90;;;;;;4840342;29;20050;-86
2021/08/14 05:41:39;;;;;;;19.73;5.60;;;15.90;99.90;;;;;;4827885;29;20066;-85
2021/08/14 05:44:07;;;;;;;16.17;5.43;;;15.90;99.90;;;;;;4815610;29;20058;-86
2021/08/14 05:46:38;;;;;;;14.68;5.38;;;16.00;99.90;;;;;;4845499;29;20058;-87
2021/08/14 05:49:08;;;;;;;19.05;6.20;;;16.10;99.90;;;;;;4847073;29;20062;-87
2021/08/14 05:51:37;;;;;;;14.43;5.03;;;16.30;99.90;;;;;;4836896;29;20054;-86
2021/08/14 05:54:16;;;;;;;17.45;6.40;;;16.40;99.90;;;;;;4837749;29;20070;-86
2021/08/14 05:56:46;;;;;;;14.40;4.30;;;16.50;99.90;;;;;;4836335;29;20068;-86
2021/08/14 05:59:15;;;;;;;15.80;5.07;;;16.60;99.90;;;;;;4840275;29;20062;-85
2021/08/14 06:01:43;;;;;;;14.15;3.85;;;16.60;99.90;;;;;;4826651;29;20083;-86
2021/08/14 06:04:37;;;;;;;13.55;4.80;;;16.80;99.90;;;;;;4854045;29;20465;-86
2021/08/14 06:07:05;;;;;;;12.45;4.70;;;16.80;99.90;;;;;;4853692;29;20062;-86
2021/08/14 06:09:34;;;;;;;16.52;4.85;;;16.90;99.90;;;;;;4831158;29;20060;-85
2021/08/14 06:12:07;;;;;;;14.05;4.82;;;16.90;99.90;;;;;;4849300;29;20106;-85
2021/08/14 06:14:37;;;;;;;16.33;6.07;;;17.00;99.90;;;;;;4835048;29;20050;-86
2021/08/14 06:17:07;;;;;;;17.90;4.80;;;17.00;99.90;;;;;;4816324;29;20059;-86
2021/08/14 06:19:38;;;;;;;13.23;4.93;;;17.10;99.90;;;;;;4834169;29;20050;-86
2021/08/14 06:22:07;;;;;;;13.48;6.03;;;17.20;99.90;;;;;;4820509;29;20066;-86
2021/08/14 06:24:36;;;;;;;15.35;4.57;;;17.30;99.90;;;;;;4846906;29;20057;-86
2021/08/14 06:27:05;;;;;;;12.00;4.28;;;17.30;99.90;;;;;;4824735;29;20058;-85
2021/08/14 06:29:33;;;;;;;11.35;4.38;;;17.40;99.90;;;;;;4836980;29;20055;-87
2021/08/14 06:32:02;;;;;;;17.00;4.50;;;16.40;99.90;;;;;;4850481;29;20061;-84
2021/08/14 06:34:30;;;;;;;11.98;5.63;;;17.50;99.90;;;;;;4850165;29;20058;-86
2021/08/14 06:37:00;;;;;;;23.20;5.30;;;17.60;99.90;;;;;;4816952;29;20058;-86
2021/08/14 06:39:28;;;;;;;14.90;3.92;;;17.70;99.90;;;;;;4826036;29;20062;-85
2021/08/14 06:41:57;;;;;;;11.40;4.50;;;17.70;99.90;;;;;;4820235;29;20062;-86
2021/08/14 06:44:25;;;;;;;16.48;5.00;;;17.70;99.90;;;;;;4836821;29;20062;-86
2021/08/14 06:46:54;;;;;;;13.40;4.28;;;17.80;99.90;;;;;;4825157;29;20062;-86
2021/08/14 06:49:24;;;;;;;15.38;5.03;;;17.80;99.90;;;;;;4836307;29;20068;-86
2021/08/14 06:51:56;;;;;;;15.23;4.70;;;17.90;99.90;;;;;;4818745;29;20089;-86
2021/08/14 06:54:27;;;;;;;9.75;3.92;;;18.00;99.90;;;;;;4835432;29;20057;-85
2021/08/14 06:56:59;;;;;;;15.20;6.68;;;18.10;99.90;;;;;;4836621;29;20062;-85
2021/08/14 06:59:45;;;;;;;14.30;4.80;;;18.30;99.90;;;;;;4843699;29;20062;-86
2021/08/14 07:02:18;;;;;;;10.38;4.15;;;18.20;99.90;;;;;;4819429;29;20054;-86
2021/08/14 07:04:55;;;;;;;11.80;4.70;;;18.30;99.90;;;;;;4823288;29;20046;-85
2021/08/14 07:07:25;;;;;;;14.80;4.82;;;17.80;99.90;;;;;;4820106;29;20524;-86
2021/08/14 07:09:56;;;;;;;13.13;5.70;;;18.30;99.90;;;;;;4837017;29;20050;-85
2021/08/14 07:12:31;;;;;;;10.40;4.53;;;18.30;99.90;;;;;;4825662;29;20062;-85
2021/08/14 07:15:12;;;;;;;14.73;4.95;;;18.20;99.90;;;;;;4807436;29;20068;-86
2021/08/14 07:17:50;;;;;;;15.30;5.65;;;18.20;99.90;;;;;;4849295;29;20054;-86
2021/08/14 07:20:24;;;;;;;11.13;3.88;;;19.20;99.90;;;;;;4819902;29;20068;-86
2021/08/14 07:22:55;;;;;;;17.27;5.78;;;18.30;99.90;;;;;;4849290;29;20054;-87
2021/08/14 07:25:24;;;;;;;16.85;6.40;;;18.40;99.90;;;;;;4837870;29;20050;-85
2021/08/14 07:27:53;;;;;;;12.50;4.22;;;18.40;99.90;;;;;;4836129;29;20072;-87
2021/08/14 07:30:23;;;;;;;14.05;4.07;;;18.00;99.90;;;;;;4834240;29;20057;-86
2021/08/14 07:32:52;;;;;;;11.93;4.50;;;18.60;99.90;;;;;;4831702;29;20066;-86
2021/08/14 07:35:27;;;;;;;20.02;4.50;;;18.70;99.90;;;;;;4828888;29;20061;-86
2021/08/14 07:38:06;;;;;;;14.88;4.72;;;18.80;99.90;;;;;;4804987;29;20047;-85
2021/08/14 07:40:38;;;;;;;;;;;18.90;99.90;;;;;;4849137;29;20058;-85
2021/08/14 07:43:27;;;;;;;12.70;5.18;;;18.90;99.90;;;;;;4801400;29;19925;-85
2021/08/14 07:45:56;;;;;;;15.10;4.30;;;20.10;99.90;;;;;;4833749;29;20064;-86
2021/08/14 07:48:38;;;;;;;14.60;4.60;;;19.10;99.90;;;;;;4835030;29;20066;-86
2021/08/14 07:51:10;;;;;;;13.68;4.28;;;19.20;99.90;;;;;;4839935;29;20054;-85
2021/08/14 07:53:51;;;;;;;17.63;4.47;;;19.40;99.90;;;;;;4840294;29;20053;-85
2021/08/14 07:56:24;;;;;;;10.18;3.65;;;19.40;99.90;;;;;;4846507;29;20054;-86
2021/08/14 07:58:55;;;;;;;15.02;4.70;;;19.50;99.90;;;;;;4808130;29;20064;-85
2021/08/14 08:02:16;;;;;;;12.50;4.28;;;19.50;99.90;;;;;;4835217;29;20051;-86
2021/08/14 08:04:52;;;;;;;12.43;5.57;;;19.20;99.90;;;;;;4851164;29;20058;-87
2021/08/14 08:07:32;;;;;;;15.23;6.28;;;20.00;99.90;;;;;;4825348;29;20055;-85
2021/08/14 08:10:10;;;;;;;10.82;4.75;;;19.70;99.90;;;;;;4814384;29;20089;-87
2021/08/14 08:12:49;;;;;;;10.35;4.22;;;20.80;99.90;;;;;;4828648;29;20060;-86
2021/08/14 08:15:21;;;;;;;10.50;3.83;;;19.60;99.90;;;;;;4839189;29;20054;-85
2021/08/14 08:17:51;;;;;;;;;;;19.60;99.90;;;;;;4836756;29;20062;-86
2021/08/14 08:20:50;;;;;;;13.85;3.78;;;18.40;99.90;;;;;;4827784;29;19933;-85
2021/08/14 08:24:30;;;;;;;10.15;4.00;;;19.70;99.90;;;;;;4763805;30;20539;-84
2021/08/14 08:28:04;;;;;;;;;;;;;;;;;;;;;
2021/08/14 08:30:56;;;;;;;11.77;4.38;;;19.80;99.90;;;;;;4833294;29;20055;-85
2021/08/14 08:33:31;;;;;;;13.65;3.65;;;19.70;99.90;;;;;;4799142;29;20054;-86
2021/08/14 08:36:06;;;;;;;10.60;3.67;;;19.90;99.90;;;;;;4827082;29;20103;-86
2021/08/14 08:39:19;;;;;;;13.45;3.38;;;20.00;99.90;;;;;;4798530;29;20055;-84
2021/08/14 08:42:16;;;;;;;11.25;3.70;;;20.10;99.90;;;;;;4795185;30;20055;-85
2021/08/14 08:45:24;;;;;;;11.38;3.83;;;20.20;99.90;;;;;;4799549;29;20059;-84
2021/08/14 08:48:18;;;;;;;9.68;3.70;;;20.60;99.90;;;;;;4797258;29;20086;-84
2021/08/14 08:57:48;;;;;;;10.75;4.00;;;20.30;99.90;;;;;;4796460;29;20056;-86
2021/08/14 09:00:54;;;;;;;;;;;;;;;;;;;;;
2021/08/14 09:08:31;;;;;;;12.60;3.85;;;20.60;99.90;;;;;;4797253;29;20055;-85
2021/08/14 09:11:53;;;;;;;16.02;4.05;;;20.70;99.90;;;;;;4796191;30;20051;-85
2021/08/14 09:15:16;;;;;;;13.38;4.15;;;20.80;99.90;;;;;;4799945;29;20066;-87
2021/08/14 09:18:04;;;;;;;14.98;4.55;;;21.50;99.90;;;;;;4806534;29;20328;-86
2021/08/14 09:20:55;;;;;;;12.85;4.43;;;22.40;99.90;;;;;;4765702;29;20051;-87
2021/08/14 09:23:44;;;;;;;8.25;3.80;;;20.20;99.90;;;;;;4783236;29;20062;-86
2021/08/14 09:26:19;;;;;;;14.65;5.10;;;21.30;99.90;;;;;;4796523;29;20051;-85
2021/08/14 09:29:16;;;;;;;13.70;4.85;;;21.40;99.90;;;;;;4792422;29;20059;-86
2021/08/14 09:31:52;;;;;;;17.23;6.43;;;21.40;99.90;;;;;;4795593;29;20055;-85
2021/08/14 09:34:31;;;;;;;13.25;5.15;;;21.50;99.90;;;;;;4787216;30;20059;-87
2021/08/14 09:37:12;;;;;;;11.30;4.75;;;21.60;99.90;;;;;;4789397;29;20054;-85
2021/08/14 09:40:28;;;;;;;17.73;7.15;;;21.70;99.90;;;;;;4834538;29;20059;-84
2021/08/14 09:43:37;;;;;;;15.68;6.07;;;21.80;99.90;;;;;;4823630;29;20046;-86
2021/08/14 09:46:18;;;;;;;18.33;5.40;;;21.10;99.90;;;;;;4823829;29;20072;-85
2021/08/14 09:49:06;;;;;;;17.42;5.88;;;21.90;99.90;;;;;;4825985;29;20058;-84
2021/08/14 09:51:37;;;;;;;17.75;5.75;;;21.90;99.90;;;;;;4836372;29;20058;-84
2021/08/14 09:54:29;;;;;;;;;;;23.40;99.90;;;;;;4825848;29;20061;-85
2021/08/14 09:57:51;;;;;;;18.35;7.05;;;20.80;99.90;;;;;;4811894;29;19949;-84
2021/08/14 10:00:35;;;;;;;23.05;7.32;;;21.90;99.90;;;;;;4844968;29;20057;-83
2021/08/14 10:03:39;;;;;;;17.25;6.32;;;21.00;99.90;;;;;;4833613;29;20070;-84
2021/08/14 10:06:12;;;;;;;14.50;5.68;;;22.20;99.90;;;;;;4834715;29;20058;-84
2021/08/14 10:08:58;;;;;;;22.83;10.60;;;21.70;99.90;;;;;;4833943;29;20343;-84
2021/08/14 10:11:56;;;;;;;18.75;7.68;;;22.40;99.90;;;;;;4819746;29;20066;-86
2021/08/14 10:14:58;;;;;;;15.82;6.22;;;22.40;99.90;;;;;;4825942;29;20057;-87
2021/08/14 10:17:51;;;;;;;12.80;5.20;;;22.10;99.50;;;;;;4807568;29;20062;-86
2021/08/14 10:20:55;;;;;;;17.60;5.47;;;21.70;99.40;;;;;;4833033;29;20050;-86
2021/08/14 10:24:14;;;;;;;;;;;;;;;;;;;;;
2021/08/14 10:27:27;;;;;;;16.23;5.57;;;22.50;99.40;;;;;;4828286;29;20058;-85
2021/08/14 10:30:26;;;;;;;;;;;;;;;;;;;;;
2021/08/14 10:33:40;;;;;;;18.67;5.40;;;22.60;99.50;;;;;;4825802;29;19929;-86
2021/08/14 10:36:22;;;;;;;14.32;6.20;;;23.30;99.30;;;;;;4825706;29;20050;-84
2021/08/14 10:43:46;;;;;;;14.45;5.32;;;22.50;98.70;;;;;;4827449;29;20062;-85
2021/08/14 10:46:45;;;;;;;19.85;6.05;;;22.80;98.60;;;;;;4790089;29;20067;-87
2021/08/14 10:49:35;;;;;;;14.37;5.93;;;22.90;98.60;;;;;;4797961;29;20058;-83
2021/08/14 10:52:34;;;;;;;15.18;5.45;;;22.90;99.10;;;;;;4802758;29;20066;-84
2021/08/14 10:55:53;;;;;;;16.85;5.20;;;23.00;98.90;;;;;;4787077;29;20062;-83
2021/08/14 10:59:08;;;;;;;;;;;;;;;;;;;;;
2021/08/14 11:02:35;;;;;;;12.02;4.30;;;23.60;98.70;;;;;;4793790;29;20059;-85
2021/08/14 11:05:54;;;;;;;18.17;5.05;;;23.90;98.40;;;;;;4799251;29;20063;-84
2021/08/14 11:08:30;;;;;;;17.52;5.18;;;24.00;97.70;;;;;;4816254;29;20058;-84
2021/08/14 11:11:23;;;;;;;13.90;5.18;;;24.10;97.40;;;;;;4830680;29;20059;-83
2021/08/14 11:14:46;;;;;;;16.67;4.55;;;24.50;97.20;;;;;;4819374;29;20613;-87
2021/08/14 11:17:52;;;;;;;16.88;5.03;;;24.10;97.00;;;;;;4819048;29;20066;-84
2021/08/14 11:20:41;;;;;;;12.25;4.47;;;24.10;97.10;;;;;;4833275;29;20066;-82
2021/08/14 11:23:23;;;;;;;13.88;4.80;;;23.90;97.10;;;;;;4822078;29;20598;-82
2021/08/14 11:25:55;;;;;;;16.42;4.32;;;23.80;97.20;;;;;;4824129;29;20059;-82
2021/08/14 11:28:26;;;;;;;12.55;4.50;;;23.50;97.20;;;;;;4840984;29;20054;-82
2021/08/14 11:31:04;;;;;;;16.50;4.70;;;23.30;97.40;;;;;;4825144;29;20069;-82
2021/08/14 11:33:37;;;;;;;16.15;5.18;;;23.20;97.60;;;;;;4821686;29;20060;-81
2021/08/14 11:36:10;;;;;;;12.00;4.05;;;23.10;97.80;;;;;;4824427;29;20059;-81
2021/08/14 11:38:44;;;;;;;17.23;5.57;;;23.00;98.10;;;;;;4828232;29;20059;-82
2021/08/14 11:41:18;;;;;;;19.40;4.90;;;23.00;98.10;;;;;;4846489;29;20065;-82
2021/08/14 11:44:01;;;;;;;9.23;4.28;;;23.00;98.10;;;;;;4822219;29;20063;-82
2021/08/14 11:46:29;;;;;;;10.15;4.13;;;23.10;98.10;;;;;;4834820;29;20058;-83
2021/08/14 11:49:03;;;;;;;9.35;4.00;;;23.30;98.00;;;;;;4796346;29;20068;-82
2021/08/14 11:51:33;;;;;;;11.18;3.22;;;23.30;97.70;;;;;;4835129;29;20062;-82
2021/08/14 11:54:06;;;;;;;12.63;4.50;;;23.40;97.50;;;;;;4839005;29;20058;-82
2021/08/14 11:56:35;;;;;;;10.35;3.92;;;22.40;97.40;;;;;;4837024;29;20298;-83
2021/08/14 11:59:04;;;;;;;14.70;3.97;;;23.40;97.60;;;;;;4836969;29;20045;-83
2021/08/14 12:01:39;;;;;;;12.48;4.28;;;23.50;97.80;;;;;;4844314;29;20062;-82
2021/08/14 12:04:09;;;;;;;9.55;3.28;;;23.50;97.60;;;;;;4838160;29;20069;-82
2021/08/14 12:06:37;;;;;;;13.27;4.07;;;23.40;97.70;;;;;;4838393;29;20063;-83
2021/08/14 12:09:08;;;;;;;17.08;4.90;;;23.40;97.60;;;;;;4850754;29;20061;-82
2021/08/14 12:11:36;;;;;;;15.05;4.25;;;23.40;97.60;;;;;;4819408;29;20058;-82
2021/08/14 12:14:19;;;;;;;9.60;3.83;;;23.50;97.80;;;;;;4815442;29;20444;-82
2021/08/14 12:16:52;;;;;;;9.00;3.20;;;23.70;97.60;;;;;;4832711;29;20057;-82
2021/08/14 12:19:23;;;;;;;12.73;4.05;;;23.80;97.30;;;;;;4841840;29;20062;-83
2021/08/14 12:22:14;;;;;;;13.30;4.10;;;23.90;97.00;;;;;;4848458;29;20496;-82
2021/08/14 12:24:44;;;;;;;11.15;3.33;;;24.00;96.50;;;;;;4822348;29;20070;-83
2021/08/14 12:27:28;;;;;;;12.32;3.97;;;24.10;96.80;;;;;;4830406;29;20077;-82
2021/08/14 12:30:20;;;;;;;10.05;4.03;;;24.10;96.60;;;;;;4828307;29;20061;-82
2021/08/14 12:32:51;;;;;;;12.93;4.07;;;24.00;96.40;;;;;;4844106;29;20042;-83
2021/08/14 12:35:25;;;;;;;12.20;4.00;;;23.90;96.80;;;;;;4837262;29;20412;-83
2021/08/14 12:38:10;;;;;;;10.60;3.97;;;23.90;96.80;;;;;;4820092;29;20051;-82
2021/08/14 12:40:41;;;;;;;9.48;3.47;;;23.90;96.70;;;;;;4817562;29;20063;-83
2021/08/14 12:43:15;;;;;;;9.05;3.97;;;23.90;96.70;;;;;;4820645;29;20055;-83
2021/08/14 12:45:48;;;;;;;12.85;3.28;;;24.00;96.40;;;;;;4848601;29;20062;-82
2021/08/14 12:48:17;;;;;;;12.73;4.43;;;24.00;96.00;;;;;;4818375;29;20062;-83
2021/08/14 12:50:48;;;;;;;12.73;4.57;;;24.00;96.20;;;;;;4827576;29;20054;-82
2021/08/14 12:53:18;;;;;;;12.98;4.05;;;24.20;96.10;;;;;;4851092;29;20064;-82
2021/08/14 12:55:50;;;;;;;11.35;3.78;;;24.30;96.00;;;;;;4827571;29;20059;-82
2021/08/14 12:58:22;;;;;;;9.75;3.28;;;24.60;95.40;;;;;;4839094;29;20050;-82
2021/08/14 13:00:53;;;;;;;10.60;3.22;;;25.80;95.60;;;;;;4826987;29;20046;-82
2021/08/14 13:03:29;;;;;;;12.73;4.97;;;24.90;94.90;;;;;;4837663;29;20047;-82
2021/08/14 13:05:59;;;;;;;9.38;3.50;;;25.00;94.90;;;;;;4850421;29;20064;-82
2021/08/14 13:08:28;;;;;;;9.77;4.10;;;25.10;94.90;;;;;;4832465;29;20058;-82
2021/08/14 13:10:56;;;;;;;7.57;4.63;;;25.10;94.70;;;;;;4835805;29;20065;-82
2021/08/14 13:13:26;;;;;;;8.40;3.20;;;25.10;95.00;;;;;;4835976;29;20056;-82
2021/08/14 13:15:54;;;;;;;8.50;2.92;;;24.20;94.60;;;;;;4843997;29;20066;-82
2021/08/14 13:18:24;;;;;;;6.57;3.03;;;25.20;94.90;;;;;;4834067;29;20073;-82
2021/08/14 13:20:55;;;;;;;9.18;2.97;;;25.30;94.80;;;;;;4842548;29;20062;-82
2021/08/14 13:23:25;;;;;;;12.57;3.83;;;25.40;94.80;;;;;;4831136;29;20072;-82
2021/08/14 13:25:55;;;;;;;8.30;3.28;;;25.40;94.70;;;;;;4845036;29;20071;-82
2021/08/14 13:28:23;;;;;;;20.08;4.05;;;25.60;94.50;;;;;;4822639;29;20060;-82
2021/08/14 13:30:52;;;;;;;11.10;3.70;;;25.70;94.30;;;;;;4840081;29;20066;-80
2021/08/14 13:33:22;;;;;;;12.30;4.47;;;25.20;94.00;;;;;;4854045;29;20077;-82
2021/08/14 13:35:51;;;;;;;13.15;3.70;;;25.90;94.30;;;;;;4838134;29;20133;-82
2021/08/14 13:38:19;;;;;;;13.35;4.00;;;26.00;94.30;;;;;;4838436;29;20066;-82
2021/08/14 13:40:48;;;;;;;10.27;3.35;;;26.20;94.10;;;;;;4839151;29;20059;-82
2021/08/14 13:43:16;;;;;;;9.15;3.33;;;26.20;94.20;;;;;;4821696;29;20058;-83
2021/08/14 13:45:44;;;;;;;7.43;2.92;;;26.20;93.30;;;;;;4822435;29;20058;-82
2021/08/14 13:48:13;;;;;;;11.93;3.97;;;26.00;93.40;;;;;;4826418;29;20050;-82
2021/08/14 13:50:44;;;;;;;11.98;3.50;;;25.90;93.50;;;;;;4819875;29;20073;-82
2021/08/14 13:53:11;;;;;;;7.32;3.40;;;26.10;93.50;;;;;;4831390;29;20062;-83
2021/08/14 13:55:40;;;;;;;10.98;4.03;;;26.40;93.90;;;;;;4850591;29;20058;-82
2021/08/14 13:58:08;;;;;;;12.18;4.05;;;26.90;93.10;;;;;;4849369;29;20065;-82
2021/08/14 14:00:36;;;;;;;6.85;2.80;;;27.20;92.90;;;;;;4838595;29;20555;-82
2021/08/14 14:03:07;;;;;;;11.05;2.63;;;27.40;92.40;;;;;;4846111;29;20050;-82
2021/08/14 14:05:36;;;;;;;9.52;2.60;;;27.70;91.90;;;;;;4852910;29;20436;-82
2021/08/14 14:08:04;;;;;;;7.20;3.17;;;27.90;91.60;;;;;;4846915;29;20056;-82
2021/08/14 14:10:34;;;;;;;7.32;3.38;;;28.00;91.40;;;;;;4844053;29;20058;-82
2021/08/14 14:13:05;;;;;;;9.52;2.97;;;28.10;91.40;;;;;;4821561;29;20059;-82
2021/08/14 14:15:38;;;;;;;10.55;3.40;;;28.00;90.90;;;;;;4845426;29;20062;-82
2021/08/14 14:18:10;;;;;;;20.40;3.50;;;27.80;90.90;;;;;;4853546;29;20074;-82
2021/08/14 14:20:39;;;;;;;10.10;4.28;;;27.50;91.00;;;;;;4833294;29;20062;-82
2021/08/14 14:23:08;;;;;;;12.77;4.80;;;27.50;91.50;;;;;;4846178;29;20047;-83
2021/08/14 14:25:37;;;;;;;16.27;5.03;;;27.70;91.10;;;;;;4837433;29;20058;-83
2021/08/14 14:28:10;;;;;;;6.47;3.22;;;27.90;91.20;;;;;;4841146;29;20069;-83
2021/08/14 14:30:43;;;;;;;9.43;4.13;;;28.10;90.70;;;;;;4837831;29;20070;-82
2021/08/14 14:33:12;;;;;;;10.57;3.97;;;28.10;90.10;;;;;;4831933;29;20051;-82
2021/08/14 14:35:41;;;;;;;10.35;3.95;;;27.90;90.50;;;;;;4829085;29;20061;-82
2021/08/14 14:38:11;;;;;;;9.98;3.03;;;28.10;90.90;;;;;;4834455;29;20054;-82
2021/08/14 14:40:42;;;;;;;10.88;3.15;;;28.40;90.20;;;;;;4837938;29;20051;-83
2021/08/14 14:43:10;;;;;;;11.75;3.70;;;28.60;89.00;;;;;;4836161;29;20054;-82
2021/08/14 14:45:40;;;;;;;7.85;3.75;;;28.70;88.60;;;;;;4816046;29;20069;-83
2021/08/14 14:48:09;;;;;;;8.88;3.47;;;28.50;87.90;;;;;;4842122;29;20069;-83
2021/08/14 14:50:41;;;;;;;11.27;3.10;;;28.70;88.60;;;;;;4824208;29;20062;-83
2021/08/14 14:53:09;;;;;;;13.20;4.18;;;28.60;88.10;;;;;;4832805;29;20060;-83
2021/08/14 14:55:39;;;;;;;15.75;3.92;;;28.50;89.30;;;;;;4826216;29;20400;-84
2021/08/14 14:58:10;;;;;;;15.68;4.18;;;28.60;88.30;;;;;;4860837;29;20054;-83
2021/08/14 15:00:39;;;;;;;10.38;3.33;;;28.80;88.20;;;;;;4838010;29;20056;-83
2021/08/14 15:03:07;;;;;;;6.45;3.50;;;29.10;88.20;;;;;;4844333;29;20513;-83
2021/08/14 15:05:36;;;;;;;10.50;3.30;;;29.40;88.20;;;;;;4843101;29;20078;-83
2021/08/14 15:08:07;;;;;;;8.80;4.15;;;28.60;87.40;;;;;;4823193;29;20060;-82
2021/08/14 15:10:36;;;;;;;9.35;3.47;;;29.70;86.40;;;;;;4843462;29;20497;-82
2021/08/14 15:13:04;;;;;;;9.88;3.80;;;29.70;84.80;;;;;;4836259;29;20046;-83
2021/08/14 15:15:32;;;;;;;16.15;4.20;;;29.70;85.90;;;;;;4837069;29;20069;-82
2021/08/14 15:18:00;;;;;;;13.35;4.40;;;29.80;85.50;;;;;;4837497;29;20065;-83
2021/08/14 15:20:30;;;;;;;16.23;3.83;;;30.10;84.90;;;;;;4837142;29;20061;-82
2021/08/14 15:22:59;;;;;;;10.82;3.80;;;30.10;84.70;;;;;;4818123;29;20407;-84
2021/08/14 15:25:30;;;;;;;6.60;3.17;;;30.40;82.90;;;;;;4841349;29;20058;-83
2021/08/14 15:27:59;;;;;;;11.60;3.25;;;30.40;82.30;;;;;;4834744;29;20069;-82
2021/08/14 15:30:28;;;;;;;12.02;3.80;;;30.40;82.00;;;;;;4832264;29;20069;-83
2021/08/14 15:32:56;;;;;;;9.88;3.83;;;30.40;82.40;;;;;;4840224;29;20062;-83
2021/08/14 15:35:25;;;;;;;13.77;3.90;;;30.60;82.20;;;;;;4820058;29;20065;-82
2021/08/14 15:37:56;;;;;;;13.95;4.03;;;30.70;81.60;;;;;;4820404;29;20065;-83
2021/08/14 15:40:25;;;;;;;15.02;3.78;;;30.50;81.20;;;;;;4818313;29;20074;-83
2021/08/14 15:42:55;;;;;;;11.07;4.03;;;31.10;81.80;;;;;;4830333;29;20064;-82
2021/08/14 15:45:25;;;;;;;10.18;3.58;;;31.40;79.80;;;;;;4824325;29;20054;-83
2021/08/14 15:47:54;;;;;;;13.82;4.22;;;31.70;79.70;;;;;;4832080;29;20055;-83
2021/08/14 15:50:23;;;;;;;11.15;4.75;;;31.90;79.40;;;;;;4850451;29;20053;-82
2021/08/14 15:52:53;;;;;;;9.95;3.70;;;31.90;78.10;;;;;;4835614;29;20046;-82
2021/08/14 15:55:23;;;;;;;15.68;4.00;;;31.60;77.70;;;;;;4836481;29;20069;-82
2021/08/14 15:57:52;;;;;;;12.13;4.45;;;31.10;78.70;;;;;;4842369;29;20054;-82
2021/08/14 16:00:22;;;;;;;10.48;3.58;;;30.70;78.30;;;;;;4848661;29;20058;-82
2021/08/14 16:02:51;;;;;;;11.25;3.55;;;30.40;78.30;;;;;;4829142;29;20051;-83
2021/08/14 16:05:20;;;;;;;14.50;4.85;;;30.40;78.60;;;;;;4853478;29;20129;-82
2021/08/14 16:07:49;;;;;;;10.77;4.75;;;30.60;78.40;;;;;;4832752;29;20064;-83
2021/08/14 16:10:18;;;;;;;13.65;4.63;;;30.80;78.60;;;;;;4836022;29;20050;-82
2021/08/14 16:12:47;;;;;;;10.13;3.10;;;31.00;77.90;;;;;;4836706;29;20062;-82
2021/08/14 16:15:16;;;;;;;12.20;4.63;;;31.10;77.70;;;;;;4836947;29;20065;-82
2021/08/14 16:17:45;;;;;;;11.52;3.67;;;31.00;76.70;;;;;;4835262;29;20054;-82
2021/08/14 16:20:14;;;;;;;14.50;3.85;;;30.80;77.30;;;;;;4839090;29;20068;-83
2021/08/14 16:22:49;;;;;;;10.60;3.95;;;30.70;77.40;;;;;;4838139;29;20069;-83
2021/08/14 16:25:20;;;;;;;15.18;4.80;;;30.70;76.70;;;;;;4838768;29;20066;-83
2021/08/14 16:27:49;;;;;;;13.80;4.55;;;30.70;76.60;;;;;;4837875;29;20069;-83
2021/08/14 16:30:17;;;;;;;14.68;4.53;;;30.80;76.50;;;;;;4851323;29;20063;-83
2021/08/14 16:32:45;;;;;;;13.20;5.15;;;30.90;77.00;;;;;;4857282;29;20081;-83
2021/08/14 16:35:15;;;;;;;11.13;4.00;;;31.30;76.80;;;;;;4819592;29;20083;-83
2021/08/14 16:37:44;;;;;;;10.80;3.67;;;31.10;75.50;;;;;;4828509;29;20046;-84
2021/08/14 16:40:13;;;;;;;7.45;3.55;;;31.60;74.40;;;;;;4864926;29;20057;-83
2021/08/14 16:42:41;;;;;;;9.65;3.75;;;31.60;74.90;;;;;;4830402;29;20062;-83
2021/08/14 16:45:10;;;;;;;12.30;4.55;;;31.70;75.10;;;;;;4821605;29;20066;-83
2021/08/14 16:47:45;;;;;;;11.87;3.83;;;31.20;74.10;;;;;;4846320;29;20061;-84
2021/08/14 16:50:15;;;;;;;10.18;3.33;;;31.90;74.10;;;;;;4838214;29;20054;-83
2021/08/14 16:52:43;;;;;;;10.82;4.00;;;31.40;72.90;;;;;;4835737;29;20067;-82
2021/08/14 16:55:11;;;;;;;14.05;4.45;;;30.70;73.60;;;;;;4821944;29;20070;-83
2021/08/14 16:57:40;;;;;;;12.65;3.45;;;30.50;74.60;;;;;;4852651;29;20062;-83
2021/08/14 17:00:16;;;;;;;14.68;5.25;;;30.70;74.40;;;;;;4839034;29;20050;-83
2021/08/14 17:02:47;;;;;;;11.15;4.43;;;30.80;74.20;;;;;;4846320;29;20054;-84
2021/08/14 17:05:21;;;;;;;10.65;3.47;;;31.10;74.10;;;;;;4846133;29;20065;-83
2021/08/14 17:07:49;;;;;;;20.30;4.40;;;31.60;73.50;;;;;;4833571;29;20067;-82
2021/08/14 17:10:18;;;;;;;15.75;4.47;;;31.80;72.40;;;;;;4822614;29;20050;-82
2021/08/14 17:12:48;;;;;;;10.10;3.72;;;31.90;72.00;;;;;;4838517;29;20072;-83
2021/08/14 17:15:18;;;;;;;11.80;3.35;;;31.90;71.80;;;;;;4819976;29;20055;-82
2021/08/14 17:17:47;;;;;;;13.13;3.80;;;31.90;71.90;;;;;;4848528;29;20061;-83
2021/08/14 17:20:16;;;;;;;12.75;4.63;;;31.90;71.80;;;;;;4825094;29;20051;-82
2021/08/14 17:22:46;;;;;;;7.18;3.05;;;32.10;71.60;;;;;;4838561;29;20058;-83
2021/08/14 17:25:18;;;;;;;11.13;4.47;;;32.10;71.90;;;;;;4808168;29;20062;-83
2021/08/14 17:27:48;;;;;;;10.82;4.18;;;32.00;71.70;;;;;;4834215;29;20073;-83
2021/08/14 17:30:17;;;;;;;8.57;4.07;;;31.70;71.40;;;;;;4853154;29;20066;-82
2021/08/14 17:32:46;;;;;;;12.07;4.28;;;31.60;71.20;;;;;;4837757;29;20055;-83
2021/08/14 17:35:17;;;;;;;13.02;5.75;;;31.40;71.40;;;;;;4852553;29;20058;-83
2021/08/14 17:37:52;;;;;;;13.23;4.32;;;30.90;71.90;;;;;;4837056;29;20073;-83
2021/08/14 17:40:21;;;;;;;11.07;3.53;;;30.60;72.20;;;;;;4853477;29;20054;-82
2021/08/14 17:42:50;;;;;;;12.45;4.05;;;30.40;73.20;;;;;;4838033;29;20050;-82
2021/08/14 17:45:19;;;;;;;12.00;6.50;;;30.40;73.10;;;;;;4821886;29;20073;-82
2021/08/14 17:47:47;;;;;;;16.55;5.45;;;30.30;73.30;;;;;;4821735;29;20069;-83
2021/08/14 17:50:15;;;;;;;15.80;4.40;;;30.00;73.50;;;;;;4838175;29;20066;-83
2021/08/14 17:52:44;;;;;;;14.05;4.40;;;29.60;74.20;;;;;;4847009;29;20061;-82
2021/08/14 17:55:12;;;;;;;12.95;4.22;;;29.10;75.50;;;;;;4838506;29;20072;-82
2021/08/14 17:57:41;;;;;;;14.50;4.30;;;28.50;76.20;;;;;;4828524;29;20052;-83
2021/08/14 18:00:10;;;;;;;16.80;4.60;;;28.00;77.80;;;;;;4836838;29;20068;-82
2021/08/14 18:02:39;;;;;;;16.08;3.97;;;27.60;78.50;;;;;;4822699;29;20043;-82
2021/08/14 18:05:09;;;;;;;12.10;4.40;;;27.20;79.40;;;;;;4844807;29;20072;-82
2021/08/14 18:07:43;;;;;;;16.42;5.20;;;26.90;79.80;;;;;;4840564;29;20058;-82
2021/08/14 18:10:13;;;;;;;12.88;4.53;;;26.50;80.80;;;;;;4839053;29;20157;-82
2021/08/14 18:12:44;;;;;;;19.98;8.80;;;26.20;82.60;;;;;;4836467;29;20067;-82
2021/08/14 18:15:15;;;;;;;19.55;4.82;;;25.90;82.80;;;;;;4822668;29;20061;-83
2021/08/14 18:17:43;;;;;;;13.90;4.70;;;25.70;83.50;;;;;;4835148;29;20078;-82
2021/08/14 18:20:11;;;;;;;13.63;5.13;;;25.40;84.80;;;;;;4822095;29;20076;-83
2021/08/14 18:22:44;;;;;;;11.05;4.47;;;25.20;85.50;;;;;;4837420;29;20068;-82